createdAt,value
2023-02-27T00:00:29.798Z,95.22
2023-02-27T00:01:29.619Z,95.11
2023-02-27T00:02:29.574Z,95.01
2023-02-27T00:03:29.598Z,95.01
2023-02-27T00:04:29.601Z,95.22
2023-02-27T00:05:29.524Z,95.22
2023-02-27T00:06:29.516Z,95.85
2023-02-27T00:07:29.507Z,95.53
2023-02-27T00:08:29.594Z,95.64
2023-02-27T00:09:29.501Z,95.64
2023-02-27T00:10:29.511Z,95.43
2023-02-27T00:11:29.817Z,95.53
2023-02-27T00:12:29.511Z,95.75
2023-02-27T00:13:29.460Z,96.17
2023-02-27T00:14:29.437Z,96.06
2023-02-27T00:15:29.538Z,95.37
2023-02-27T00:16:29.494Z,95.68
2023-02-27T00:17:29.584Z,95.68
2023-02-27T00:18:29.417Z,95.37
2023-02-27T00:19:29.373Z,96.11
2023-02-27T00:20:29.375Z,95.68
2023-02-27T00:21:29.381Z,95.68
2023-02-27T00:22:29.356Z,96.11
2023-02-27T00:23:29.360Z,95.79
2023-02-27T00:24:29.346Z,95.89
2023-02-27T00:25:29.343Z,96.00
2023-02-27T00:26:29.346Z,95.68
2023-02-27T00:27:29.359Z,95.57
2023-02-27T00:28:29.273Z,95.89
2023-02-27T00:29:29.299Z,95.79
2023-02-27T00:30:29.307Z,95.51
2023-02-27T00:31:29.743Z,95.62
2023-02-27T00:32:29.261Z,95.94
2023-02-27T00:33:29.234Z,95.94
2023-02-27T00:34:29.274Z,95.51
2023-02-27T00:35:29.227Z,96.15
2023-02-27T00:36:29.254Z,95.83
2023-02-27T00:37:29.257Z,95.73
2023-02-27T00:38:29.243Z,95.87
2023-02-27T00:39:29.158Z,95.87
2023-02-27T00:40:29.229Z,95.87
2023-02-27T00:41:29.288Z,96.09
2023-02-27T00:42:29.117Z,95.77
2023-02-27T00:43:29.124Z,95.77
2023-02-27T00:44:29.132Z,95.87
2023-02-27T00:45:29.142Z,95.98
2023-02-27T00:46:29.105Z,95.98
2023-02-27T00:47:29.108Z,95.77
2023-02-27T00:48:29.065Z,95.98
2023-02-27T00:49:29.069Z,95.67
2023-02-27T00:50:29.032Z,96.72
2023-02-27T00:51:29.081Z,95.87
2023-02-27T00:52:29.023Z,95.35
2023-02-27T00:53:29.197Z,96.72
2023-02-27T00:54:29.011Z,95.45
2023-02-27T00:55:29.027Z,96.30
2023-02-27T00:56:28.962Z,96.41
2023-02-27T00:57:28.995Z,96.19
2023-02-27T00:58:28.970Z,96.13
2023-02-27T00:59:28.946Z,96.13
2023-02-27T01:00:29.002Z,96.34
2023-02-27T01:01:29.099Z,96.41
2023-02-27T01:02:28.932Z,96.34
2023-02-27T01:03:28.960Z,96.34
2023-02-27T01:04:28.882Z,96.34
2023-02-27T01:05:28.897Z,96.45
2023-02-27T01:06:28.913Z,96.23
2023-02-27T01:07:28.857Z,96.87
2023-02-27T01:08:28.912Z,96.34
2023-02-27T01:09:28.820Z,96.45
2023-02-27T01:10:28.854Z,96.13
2023-02-27T01:11:28.809Z,96.45
2023-02-27T01:12:28.833Z,96.45
2023-02-27T01:13:28.799Z,96.45
2023-02-27T01:14:28.759Z,96.77
2023-02-27T01:15:28.761Z,96.66
2023-02-27T01:16:28.857Z,96.19
2023-02-27T01:17:28.761Z,96.34
2023-02-27T01:18:28.731Z,96.41
2023-02-27T01:19:28.799Z,96.41
2023-02-27T01:20:28.902Z,96.23
2023-02-27T01:21:29.040Z,96.55
2023-02-27T01:22:28.699Z,96.34
2023-02-27T01:23:28.723Z,96.55
2023-02-27T01:24:28.674Z,96.23
2023-02-27T01:25:28.646Z,96.45
2023-02-27T01:26:28.645Z,96.91
2023-02-27T01:27:28.652Z,96.45
2023-02-27T01:28:28.613Z,96.49
2023-02-27T01:29:28.632Z,96.70
2023-02-27T01:30:28.665Z,96.49
2023-02-27T01:31:29.025Z,96.49
2023-02-27T01:32:28.806Z,96.55
2023-02-27T01:33:28.608Z,96.28
2023-02-27T01:34:28.604Z,96.59
2023-02-27T01:35:28.598Z,96.81
2023-02-27T01:36:28.592Z,96.81
2023-02-27T01:37:28.606Z,96.77
2023-02-27T01:38:28.543Z,97.39
2023-02-27T01:39:28.529Z,97.39
2023-02-27T01:40:28.500Z,97.19
2023-02-27T01:41:28.705Z,97.08
2023-02-27T01:42:28.529Z,96.97
2023-02-27T01:43:28.584Z,97.08
2023-02-27T01:44:28.498Z,97.08
2023-02-27T01:45:28.509Z,97.29
2023-02-27T01:46:28.415Z,97.29
2023-02-27T01:47:28.402Z,97.19
2023-02-27T01:48:28.469Z,97.19
2023-02-27T01:49:28.395Z,97.23
2023-02-27T01:50:28.392Z,97.33
2023-02-27T01:51:28.735Z,96.91
2023-02-27T01:52:28.385Z,96.59
2023-02-27T01:53:28.346Z,96.91
2023-02-27T01:54:28.339Z,96.91
2023-02-27T01:55:28.370Z,96.81
2023-02-27T01:56:28.365Z,96.59
2023-02-27T01:57:28.319Z,96.70
2023-02-27T01:58:28.372Z,96.49
2023-02-27T01:59:28.331Z,96.49
2023-02-27T02:00:28.275Z,96.64
2023-02-27T02:01:28.693Z,96.53
2023-02-27T02:02:28.277Z,96.49
2023-02-27T02:03:28.306Z,96.91
2023-02-27T02:04:28.261Z,96.59
2023-02-27T02:05:28.283Z,96.85
2023-02-27T02:06:28.295Z,96.81
2023-02-27T02:07:28.193Z,96.85
2023-02-27T02:08:28.184Z,96.81
2023-02-27T02:09:28.187Z,96.59
2023-02-27T02:10:28.221Z,96.59
2023-02-27T02:11:28.504Z,96.85
2023-02-27T02:12:28.163Z,96.95
2023-02-27T02:13:28.134Z,96.64
2023-02-27T02:14:28.125Z,96.53
2023-02-27T02:15:28.126Z,96.70
2023-02-27T02:16:28.166Z,96.59
2023-02-27T02:17:28.109Z,97.33
2023-02-27T02:18:28.079Z,97.33
2023-02-27T02:19:28.057Z,96.91
2023-02-27T02:20:28.054Z,96.85
2023-02-27T02:21:28.297Z,96.95
2023-02-27T02:22:28.027Z,97.59
2023-02-27T02:23:28.014Z,97.38
2023-02-27T02:24:27.994Z,97.38
2023-02-27T02:25:28.019Z,97.59
2023-02-27T02:26:31.010Z,97.59
2023-02-27T02:27:28.995Z,97.38
2023-02-27T02:28:27.984Z,97.06
2023-02-27T02:29:27.959Z,97.17
2023-02-27T02:30:28.037Z,97.27
2023-02-27T02:31:28.380Z,97.02
2023-02-27T02:32:27.997Z,97.17
2023-02-27T02:33:27.903Z,97.33
2023-02-27T02:34:27.907Z,97.33
2023-02-27T02:35:27.894Z,97.75
2023-02-27T02:36:27.885Z,97.23
2023-02-27T02:37:27.874Z,97.55
2023-02-27T02:38:27.861Z,97.23
2023-02-27T02:39:27.855Z,97.33
2023-02-27T02:40:27.857Z,97.23
2023-02-27T02:41:28.192Z,96.70
2023-02-27T02:42:27.805Z,96.95
2023-02-27T02:43:27.808Z,97.17
2023-02-27T02:44:27.844Z,97.49
2023-02-27T02:45:27.766Z,97.38
2023-02-27T02:46:27.759Z,97.53
2023-02-27T02:47:27.772Z,97.53
2023-02-27T02:48:27.780Z,97.95
2023-02-27T02:49:27.769Z,97.53
2023-02-27T02:50:27.815Z,97.95
2023-02-27T02:51:28.135Z,97.63
2023-02-27T02:52:27.734Z,97.53
2023-02-27T02:53:36.192Z,97.63
2023-02-27T02:54:28.741Z,97.05
2023-02-27T02:55:27.712Z,97.42
2023-02-27T02:56:27.666Z,97.42
2023-02-27T02:57:27.658Z,97.31
2023-02-27T02:58:27.636Z,97.36
2023-02-27T02:59:27.639Z,97.89
2023-02-27T03:00:27.661Z,97.42
2023-02-27T03:01:27.916Z,97.85
2023-02-27T03:02:27.634Z,97.74
2023-02-27T03:03:27.639Z,97.99
2023-02-27T03:04:27.653Z,97.63
2023-02-27T03:05:27.567Z,97.63
2023-02-27T03:06:27.563Z,97.78
2023-02-27T03:07:27.589Z,97.89
2023-02-27T03:08:27.547Z,97.67
2023-02-27T03:09:27.530Z,97.47
2023-02-27T03:10:27.522Z,97.53
2023-02-27T03:11:27.930Z,97.67
2023-02-27T03:12:27.489Z,97.57
2023-02-27T03:13:27.494Z,97.57
2023-02-27T03:14:27.462Z,97.57
2023-02-27T03:15:27.524Z,97.57
2023-02-27T03:16:27.481Z,97.47
2023-02-27T03:17:27.427Z,97.47
2023-02-27T03:18:27.457Z,97.78
2023-02-27T03:19:27.397Z,97.78
2023-02-27T03:20:27.404Z,97.78
2023-02-27T03:21:27.747Z,97.78
2023-02-27T03:22:27.407Z,97.78
2023-02-27T03:23:27.368Z,97.83
2023-02-27T03:24:27.378Z,97.67
2023-02-27T03:25:27.360Z,97.67
2023-02-27T03:26:27.373Z,97.51
2023-02-27T03:27:27.319Z,97.61
2023-02-27T03:28:27.310Z,97.51
2023-02-27T03:29:27.316Z,97.30
2023-02-27T03:30:27.351Z,98.04
2023-02-27T03:31:27.777Z,97.93
2023-02-27T03:32:27.297Z,97.78
2023-02-27T03:33:27.265Z,97.25
2023-02-27T03:34:27.252Z,97.30
2023-02-27T03:35:27.227Z,97.30
2023-02-27T03:36:27.242Z,97.61
2023-02-27T03:37:27.216Z,97.83
2023-02-27T03:38:27.211Z,97.30
2023-02-27T03:39:27.240Z,97.72
2023-02-27T03:40:27.191Z,98.04
2023-02-27T03:41:27.548Z,98.04
2023-02-27T03:42:27.143Z,98.04
2023-02-27T03:43:27.227Z,98.04
2023-02-27T03:44:27.149Z,97.61
2023-02-27T03:45:27.112Z,97.19
2023-02-27T03:46:27.174Z,97.61
2023-02-27T03:47:27.102Z,97.61
2023-02-27T03:48:27.095Z,97.61
2023-02-27T03:49:27.079Z,97.72
2023-02-27T03:50:27.061Z,97.41
2023-02-27T03:51:27.377Z,98.14
2023-02-27T03:52:27.058Z,97.72
2023-02-27T03:53:27.045Z,98.04
2023-02-27T03:54:27.026Z,98.25
2023-02-27T03:55:27.006Z,98.04
2023-02-27T03:56:27.049Z,97.93
2023-02-27T03:57:26.995Z,98.04
2023-02-27T03:58:27.024Z,98.04
2023-02-27T03:59:27.039Z,97.72
2023-02-27T04:00:26.970Z,98.14
2023-02-27T04:01:27.408Z,98.04
2023-02-27T04:02:26.949Z,97.61
2023-02-27T04:03:26.974Z,97.61
2023-02-27T04:04:26.925Z,97.61
2023-02-27T04:05:26.942Z,97.72
2023-02-27T04:06:26.942Z,98.14
2023-02-27T04:07:26.954Z,98.04
2023-02-27T04:08:26.868Z,97.61
2023-02-27T04:09:26.850Z,97.61
2023-02-27T04:10:26.855Z,97.83
2023-02-27T04:11:27.197Z,97.83
2023-02-27T04:12:26.847Z,98.14
2023-02-27T04:13:26.878Z,97.78
2023-02-27T04:14:26.812Z,97.78
2023-02-27T04:15:26.827Z,98.14
2023-02-27T04:16:26.856Z,98.14
2023-02-27T04:17:26.816Z,97.61
2023-02-27T04:18:26.782Z,97.83
2023-02-27T04:19:26.757Z,97.83
2023-02-27T04:20:26.755Z,97.83
2023-02-27T04:21:27.002Z,98.04
2023-02-27T04:22:26.710Z,97.93
2023-02-27T04:23:26.772Z,98.04
2023-02-27T04:24:26.708Z,97.93
2023-02-27T04:25:26.691Z,98.04
2023-02-27T04:26:26.680Z,97.61
2023-02-27T04:27:26.682Z,98.04
2023-02-27T04:28:26.690Z,97.83
2023-02-27T04:29:26.663Z,97.83
2023-02-27T04:30:26.699Z,97.87
2023-02-27T04:31:27.100Z,97.77
2023-02-27T04:32:26.746Z,97.77
2023-02-27T04:33:26.607Z,98.30
2023-02-27T04:34:26.623Z,97.98
2023-02-27T04:35:26.581Z,97.72
2023-02-27T04:36:26.667Z,97.87
2023-02-27T04:37:26.572Z,98.30
2023-02-27T04:38:26.572Z,97.93
2023-02-27T04:39:26.562Z,97.72
2023-02-27T04:40:26.565Z,98.25
2023-02-27T04:41:26.859Z,97.72
2023-02-27T04:42:26.507Z,98.25
2023-02-27T04:43:26.486Z,97.72
2023-02-27T04:44:26.493Z,97.83
2023-02-27T04:45:26.558Z,98.14
2023-02-27T04:46:26.483Z,98.19
2023-02-27T04:47:26.482Z,97.87
2023-02-27T04:48:26.447Z,97.98
2023-02-27T04:49:26.451Z,98.08
2023-02-27T04:50:26.431Z,97.77
2023-02-27T04:51:26.736Z,97.66
2023-02-27T04:52:26.445Z,97.87
2023-02-27T04:53:26.384Z,97.87
2023-02-27T04:54:26.407Z,97.87
2023-02-27T04:55:26.384Z,97.87
2023-02-27T04:56:26.395Z,98.08
2023-02-27T04:57:26.340Z,98.30
2023-02-27T04:58:26.340Z,97.72
2023-02-27T04:59:26.375Z,97.77
2023-02-27T05:00:26.316Z,98.30
2023-02-27T05:01:26.819Z,97.83
2023-02-27T05:02:26.420Z,98.04
2023-02-27T05:03:26.312Z,97.83
2023-02-27T05:04:26.327Z,98.08
2023-02-27T05:05:26.269Z,98.08
2023-02-27T05:06:26.250Z,97.87
2023-02-27T05:07:26.257Z,97.83
2023-02-27T05:08:26.238Z,97.72
2023-02-27T05:09:26.223Z,97.98
2023-02-27T05:10:26.202Z,98.08
2023-02-27T05:11:26.691Z,97.87
2023-02-27T05:12:26.236Z,98.30
2023-02-27T05:13:26.209Z,98.08
2023-02-27T05:14:26.210Z,97.72
2023-02-27T05:15:26.394Z,98.04
2023-02-27T05:16:26.211Z,97.66
2023-02-27T05:17:26.109Z,97.55
2023-02-27T05:18:34.214Z,97.61
2023-02-27T05:19:26.120Z,97.45
2023-02-27T05:20:27.856Z,97.77
2023-02-27T05:21:26.443Z,97.66
2023-02-27T05:22:26.067Z,97.77
2023-02-27T05:23:26.097Z,97.87
2023-02-27T05:24:26.114Z,97.55
2023-02-27T05:25:26.030Z,97.81
2023-02-27T05:26:26.021Z,97.81
2023-02-27T05:27:26.011Z,98.13
2023-02-27T05:28:26.027Z,97.39
2023-02-27T05:29:25.994Z,97.39
2023-02-27T05:30:25.999Z,97.39
2023-02-27T05:31:26.311Z,97.39
2023-02-27T05:32:26.046Z,97.60
2023-02-27T05:33:25.969Z,97.49
2023-02-27T05:34:25.944Z,97.39
2023-02-27T05:35:28.738Z,97.49
2023-02-27T05:36:25.919Z,97.49
2023-02-27T05:37:25.950Z,97.39
2023-02-27T05:38:25.939Z,97.60
2023-02-27T05:39:25.882Z,97.28
2023-02-27T05:40:25.912Z,97.39
2023-02-27T05:41:26.171Z,97.39
2023-02-27T05:42:25.877Z,97.66
2023-02-27T05:43:25.832Z,97.66
2023-02-27T05:44:25.837Z,97.87
2023-02-27T05:45:25.817Z,97.66
2023-02-27T05:46:25.852Z,97.72
2023-02-27T05:47:25.806Z,97.77
2023-02-27T05:48:25.800Z,97.55
2023-02-27T05:49:25.784Z,97.45
2023-02-27T05:50:25.774Z,97.55
2023-02-27T05:51:26.059Z,97.45
2023-02-27T05:52:25.735Z,97.77
2023-02-27T05:53:25.734Z,97.66
2023-02-27T05:54:25.728Z,97.66
2023-02-27T05:55:25.744Z,97.66
2023-02-27T05:56:26.184Z,97.66
2023-02-27T05:57:25.693Z,97.77
2023-02-27T05:58:25.719Z,98.13
2023-02-27T05:59:25.694Z,97.34
2023-02-27T06:00:25.685Z,97.13
2023-02-27T06:01:25.648Z,97.34
2023-02-27T06:02:25.663Z,97.39
2023-02-27T06:03:25.688Z,97.60
2023-02-27T06:04:25.611Z,97.28
2023-02-27T06:05:25.610Z,97.71
2023-02-27T06:06:25.944Z,97.71
2023-02-27T06:07:25.614Z,97.39
2023-02-27T06:08:25.623Z,97.49
2023-02-27T06:09:25.552Z,97.49
2023-02-27T06:10:25.548Z,97.91
2023-02-27T06:11:25.662Z,97.91
2023-02-27T06:12:25.607Z,97.81
2023-02-27T06:13:25.530Z,97.60
2023-02-27T06:14:25.505Z,97.60
2023-02-27T06:15:25.515Z,97.71
2023-02-27T06:16:25.825Z,97.60
2023-02-27T06:17:25.497Z,97.39
2023-02-27T06:18:25.509Z,97.60
2023-02-27T06:19:25.451Z,97.49
2023-02-27T06:20:25.493Z,97.49
2023-02-27T06:21:25.437Z,97.49
2023-02-27T06:22:25.431Z,97.49
2023-02-27T06:23:25.406Z,97.55
2023-02-27T06:24:25.391Z,97.49
2023-02-27T06:25:25.404Z,97.60
2023-02-27T06:26:25.894Z,97.71
2023-02-27T06:27:25.360Z,97.24
2023-02-27T06:28:25.380Z,97.34
2023-02-27T06:29:25.340Z,97.24
2023-02-27T06:30:25.347Z,97.81
2023-02-27T06:31:25.318Z,97.77
2023-02-27T06:32:25.329Z,97.77
2023-02-27T06:33:25.295Z,97.66
2023-02-27T06:34:25.312Z,97.91
2023-02-27T06:35:25.307Z,97.77
2023-02-27T06:36:25.550Z,97.77
2023-02-27T06:37:25.251Z,97.81
2023-02-27T06:38:25.265Z,97.81
2023-02-27T06:39:25.231Z,97.66
2023-02-27T06:40:25.232Z,97.81
2023-02-27T06:41:25.229Z,97.81
2023-02-27T06:42:25.197Z,98.13
2023-02-27T06:43:25.213Z,98.13
2023-02-27T06:44:25.193Z,98.13
2023-02-27T06:45:25.185Z,97.71
2023-02-27T06:46:25.531Z,97.39
2023-02-27T06:47:25.137Z,98.13
2023-02-27T06:48:25.131Z,98.13
2023-02-27T06:49:25.149Z,98.13
2023-02-27T06:50:25.146Z,98.13
2023-02-27T06:51:25.106Z,98.13
2023-02-27T06:52:25.107Z,97.34
2023-02-27T06:53:25.077Z,97.39
2023-02-27T06:54:25.090Z,97.39
2023-02-27T06:55:25.075Z,97.91
2023-02-27T06:56:25.256Z,97.81
2023-02-27T06:57:25.044Z,98.19
2023-02-27T06:58:25.059Z,97.77
2023-02-27T06:59:25.013Z,97.87
2023-02-27T07:00:25.016Z,97.66
2023-02-27T07:01:25.108Z,97.77
2023-02-27T07:02:24.977Z,97.87
2023-02-27T07:03:24.987Z,97.87
2023-02-27T07:04:24.987Z,97.83
2023-02-27T07:05:24.967Z,97.98
2023-02-27T07:07:34.673Z,97.93
2023-02-27T07:07:35.978Z,97.83
2023-02-27T07:08:25.932Z,97.83
2023-02-27T07:09:24.913Z,98.25
2023-02-27T07:10:24.924Z,97.83
2023-02-27T07:11:24.881Z,98.14
2023-02-27T07:12:24.887Z,98.25
2023-02-27T07:13:24.864Z,97.93
2023-02-27T07:14:24.854Z,97.93
2023-02-27T07:15:24.862Z,98.36
2023-02-27T07:16:25.205Z,97.99
2023-02-27T07:17:24.821Z,97.93
2023-02-27T07:18:24.824Z,97.89
2023-02-27T07:19:24.832Z,97.78
2023-02-27T07:20:24.804Z,97.89
2023-02-27T07:21:24.803Z,98.04
2023-02-27T07:22:24.774Z,98.10
2023-02-27T07:23:24.795Z,97.89
2023-02-27T07:24:24.753Z,97.89
2023-02-27T07:25:24.731Z,98.31
2023-02-27T07:26:24.789Z,98.27
2023-02-27T07:27:24.737Z,97.99
2023-02-27T07:28:24.752Z,98.27
2023-02-27T07:29:24.698Z,98.31
2023-02-27T07:30:24.692Z,98.27
2023-02-27T07:31:24.737Z,97.85
2023-02-27T07:32:24.763Z,97.85
2023-02-27T07:33:24.693Z,97.80
2023-02-27T07:34:24.633Z,98.07
2023-02-27T07:35:24.657Z,97.59
2023-02-27T07:36:24.815Z,97.97
2023-02-27T07:37:26.384Z,97.55
2023-02-27T07:38:24.590Z,97.71
2023-02-27T07:39:24.581Z,97.61
2023-02-27T07:40:24.568Z,97.92
2023-02-27T07:41:30.705Z,97.56
2023-02-27T07:42:25.564Z,97.73
2023-02-27T07:43:24.547Z,97.77
2023-02-27T07:44:24.568Z,97.52
2023-02-27T07:45:24.524Z,97.73
2023-02-27T07:46:24.599Z,98.05
2023-02-27T07:47:24.508Z,97.83
2023-02-27T07:48:24.525Z,97.41
2023-02-27T07:49:24.495Z,97.73
2023-02-27T07:50:24.482Z,97.52
2023-02-27T07:51:24.452Z,97.41
2023-02-27T07:52:24.453Z,97.58
2023-02-27T07:53:24.457Z,97.16
2023-02-27T07:54:24.478Z,97.27
2023-02-27T07:55:24.437Z,97.69
2023-02-27T07:56:24.407Z,96.80
2023-02-27T07:57:24.391Z,97.01
2023-02-27T07:58:24.383Z,97.11
2023-02-27T07:59:24.379Z,97.11
2023-02-27T08:00:24.369Z,97.43
2023-02-27T08:01:24.421Z,97.22
2023-02-27T08:02:24.382Z,97.07
2023-02-27T08:03:24.479Z,97.07
2023-02-27T08:04:24.363Z,96.97
2023-02-27T08:05:24.438Z,96.81
2023-02-27T08:06:24.295Z,95.97
2023-02-27T08:07:24.443Z,96.29
2023-02-27T08:08:24.263Z,96.03
2023-02-27T08:09:24.466Z,95.93
2023-02-27T08:10:24.279Z,96.25
2023-02-27T08:11:24.577Z,96.35
2023-02-27T08:12:24.234Z,96.31
2023-02-27T08:13:48.404Z,95.68
2023-02-27T08:14:25.219Z,95.53
2023-02-27T08:15:24.192Z,95.64
2023-02-27T08:16:24.215Z,95.53
2023-02-27T08:17:24.176Z,95.28
2023-02-27T08:18:24.186Z,95.54
2023-02-27T08:19:24.164Z,94.92
2023-02-27T08:20:24.159Z,95.50
2023-02-27T08:21:24.232Z,94.67
2023-02-27T08:22:24.110Z,94.62
2023-02-27T08:23:24.158Z,94.62
2023-02-27T08:24:24.085Z,93.68
2023-02-27T08:25:24.119Z,93.21
2023-02-27T08:26:24.082Z,93.74
2023-02-27T08:27:24.077Z,93.17
2023-02-27T08:28:24.053Z,92.76
2023-02-27T08:29:24.058Z,92.08
2023-02-27T08:30:24.022Z,92.46
2023-02-27T08:31:24.105Z,91.83
2023-02-27T08:32:24.110Z,91.94
2023-02-27T08:33:24.009Z,92.00
2023-02-27T08:34:23.975Z,92.00
2023-02-27T08:35:23.969Z,91.12
2023-02-27T08:36:23.975Z,91.96
2023-02-27T08:37:23.942Z,90.45
2023-02-27T08:38:26.302Z,89.93
2023-02-27T08:39:23.916Z,89.72
2023-02-27T08:40:23.948Z,89.15
2023-02-27T08:41:23.970Z,88.32
2023-02-27T08:42:25.464Z,88.39
2023-02-27T08:43:23.886Z,88.07
2023-02-27T08:44:23.893Z,86.92
2023-02-27T08:45:23.862Z,86.15
2023-02-27T08:46:23.844Z,86.46
2023-02-27T08:47:23.854Z,86.25
2023-02-27T08:48:23.826Z,86.88
2023-02-27T08:49:23.833Z,86.63
2023-02-27T08:50:23.806Z,86.11
2023-02-27T08:51:23.812Z,85.97
2023-02-27T08:52:25.028Z,85.97
2023-02-27T08:53:23.773Z,85.76
2023-02-27T08:54:23.772Z,85.97
2023-02-27T08:55:23.740Z,85.97
2023-02-27T08:56:23.746Z,85.55
2023-02-27T08:57:23.735Z,85.24
2023-02-27T08:58:23.706Z,85.93
2023-02-27T08:59:23.724Z,85.72
2023-02-27T09:00:23.808Z,85.51
2023-02-27T09:01:23.821Z,84.99
2023-02-27T09:02:23.792Z,84.16
2023-02-27T09:03:23.671Z,84.26
2023-02-27T09:04:23.647Z,83.95
2023-02-27T09:05:23.630Z,83.32
2023-02-27T09:06:26.172Z,83.42
2023-02-27T09:07:23.617Z,84.16
2023-02-27T09:08:23.643Z,84.26
2023-02-27T09:09:23.690Z,84.26
2023-02-27T09:10:23.649Z,84.16
2023-02-27T09:11:23.562Z,84.05
2023-02-27T09:12:23.569Z,84.12
2023-02-27T09:13:23.537Z,84.12
2023-02-27T09:14:23.525Z,83.59
2023-02-27T09:15:23.540Z,83.32
2023-02-27T09:16:23.624Z,83.01
2023-02-27T09:17:23.488Z,82.84
2023-02-27T09:18:23.500Z,84.19
2023-02-27T09:19:23.479Z,84.12
2023-02-27T09:20:23.582Z,84.23
2023-02-27T09:21:23.479Z,84.44
2023-02-27T09:22:23.433Z,84.48
2023-02-27T09:23:23.456Z,85.14
2023-02-27T09:24:23.425Z,85.63
2023-02-27T09:25:23.473Z,86.05
2023-02-27T09:26:39.721Z,86.11
2023-02-27T09:27:24.383Z,85.90
2023-02-27T09:28:23.402Z,85.76
2023-02-27T09:29:23.384Z,85.17
2023-02-27T09:30:23.372Z,86.00
2023-02-27T09:31:23.476Z,85.80
2023-02-27T09:32:23.568Z,85.97
2023-02-27T09:33:31.412Z,84.72
2023-02-27T09:34:23.365Z,85.34
2023-02-27T09:35:23.330Z,85.44
2023-02-27T09:36:23.306Z,84.95
2023-02-27T09:37:23.307Z,84.53
2023-02-27T09:38:23.265Z,84.64
2023-02-27T09:39:23.270Z,84.05
2023-02-27T09:40:23.305Z,84.40
2023-02-27T09:41:23.245Z,84.09
2023-02-27T09:42:23.222Z,83.67
2023-02-27T09:43:23.235Z,84.30
2023-02-27T09:44:33.417Z,84.16
2023-02-27T09:45:24.215Z,84.19
2023-02-27T09:46:23.229Z,84.16
2023-02-27T09:47:23.195Z,83.84
2023-02-27T09:48:23.169Z,84.16
2023-02-27T09:49:23.135Z,84.61
2023-02-27T09:50:23.123Z,84.19
2023-02-27T09:51:23.141Z,84.57
2023-02-27T09:52:23.123Z,84.39
2023-02-27T09:53:23.104Z,83.59
2023-02-27T09:54:23.082Z,82.65
2023-02-27T09:55:23.066Z,82.76
2023-02-27T09:56:23.091Z,82.65
2023-02-27T09:57:23.076Z,82.82
2023-02-27T09:58:23.036Z,83.35
2023-02-27T09:59:23.022Z,82.93
2023-02-27T10:00:23.022Z,81.89
2023-02-27T10:01:23.021Z,82.51
2023-02-27T10:02:23.123Z,82.37
2023-02-27T10:03:23.095Z,81.96
2023-02-27T10:04:22.987Z,81.09
2023-02-27T10:05:22.981Z,81.19
2023-02-27T10:06:22.970Z,81.40
2023-02-27T10:07:22.939Z,81.32
2023-02-27T10:08:22.945Z,81.32
2023-02-27T10:09:22.927Z,80.25
2023-02-27T10:10:22.898Z,79.55
2023-02-27T10:11:22.927Z,79.35
2023-02-27T10:12:22.935Z,79.55
2023-02-27T10:13:22.868Z,79.35
2023-02-27T10:14:22.872Z,79.17
2023-02-27T10:15:22.847Z,79.59
2023-02-27T10:16:22.845Z,80.43
2023-02-27T10:17:22.852Z,80.22
2023-02-27T10:18:28.210Z,80.29
2023-02-27T10:19:23.812Z,80.39
2023-02-27T10:20:22.836Z,80.43
2023-02-27T10:21:22.787Z,80.57
2023-02-27T10:22:22.785Z,80.67
2023-02-27T10:23:22.759Z,80.98
2023-02-27T10:24:22.765Z,80.88
2023-02-27T10:25:31.164Z,81.67
2023-02-27T10:26:23.735Z,80.94
2023-02-27T10:27:22.725Z,80.26
2023-02-27T10:28:22.755Z,80.88
2023-02-27T10:29:22.722Z,81.15
2023-02-27T10:30:29.554Z,80.70
2023-02-27T10:31:23.779Z,81.08
2023-02-27T10:32:22.736Z,80.87
2023-02-27T10:33:22.682Z,79.31
2023-02-27T10:34:22.630Z,78.96
2023-02-27T10:35:22.625Z,77.78
2023-02-27T10:36:33.014Z,79.51
2023-02-27T10:37:23.629Z,77.09
2023-02-27T10:38:22.592Z,75.67
2023-02-27T10:39:22.936Z,76.50
2023-02-27T10:40:22.570Z,75.98
2023-02-27T10:41:22.559Z,77.33
2023-02-27T10:42:22.571Z,76.06
2023-02-27T10:43:22.573Z,77.09
2023-02-27T10:44:22.547Z,77.23
2023-02-27T10:45:22.530Z,75.85
2023-02-27T10:46:22.588Z,75.33
2023-02-27T10:47:22.490Z,75.29
2023-02-27T10:48:22.478Z,75.05
2023-02-27T10:49:22.574Z,74.84
2023-02-27T10:50:22.462Z,74.71
2023-02-27T10:51:22.453Z,74.98
2023-02-27T10:52:22.590Z,73.60
2023-02-27T10:53:22.426Z,74.29
2023-02-27T10:54:22.418Z,75.09
2023-02-27T10:55:22.409Z,75.43
2023-02-27T10:56:22.409Z,75.12
2023-02-27T10:57:22.384Z,73.54
2023-02-27T10:58:22.382Z,70.98
2023-02-27T10:59:22.382Z,70.32
2023-02-27T11:00:22.360Z,70.56
2023-02-27T11:01:22.377Z,71.39
2023-02-27T11:02:22.324Z,71.70
2023-02-27T11:03:22.302Z,71.88
2023-02-27T11:04:22.339Z,71.77
2023-02-27T11:05:22.280Z,72.56
2023-02-27T11:06:22.291Z,70.60
2023-02-27T11:07:22.279Z,70.73
2023-02-27T11:08:22.263Z,71.46
2023-02-27T11:09:22.246Z,71.91
2023-02-27T11:10:22.247Z,72.57
2023-02-27T11:11:22.236Z,73.26
2023-02-27T11:12:22.259Z,71.95
2023-02-27T11:13:22.193Z,70.12
2023-02-27T11:14:22.181Z,69.87
2023-02-27T11:15:22.172Z,70.11
2023-02-27T11:16:22.179Z,71.08
2023-02-27T11:17:22.153Z,71.39
2023-02-27T11:18:22.177Z,71.80
2023-02-27T11:19:22.133Z,73.05
2023-02-27T11:20:22.140Z,74.05
2023-02-27T11:21:22.099Z,74.15
2023-02-27T11:22:22.091Z,73.11
2023-02-27T11:23:22.077Z,73.53
2023-02-27T11:24:22.075Z,72.08
2023-02-27T11:25:22.100Z,71.04
2023-02-27T11:26:22.077Z,71.08
2023-02-27T11:27:22.056Z,71.63
2023-02-27T11:28:22.108Z,72.81
2023-02-27T11:29:22.041Z,73.01
2023-02-27T11:30:22.009Z,72.50
2023-02-27T11:31:22.145Z,72.29
2023-02-27T11:32:22.115Z,71.77
2023-02-27T11:33:21.968Z,71.36
2023-02-27T11:34:21.989Z,72.39
2023-02-27T11:35:21.963Z,71.73
2023-02-27T11:36:22.024Z,72.60
2023-02-27T11:37:21.952Z,73.32
2023-02-27T11:38:21.934Z,72.98
2023-02-27T11:39:21.904Z,73.18
2023-02-27T11:40:21.937Z,72.80
2023-02-27T11:41:21.884Z,73.25
2023-02-27T11:42:21.890Z,73.60
2023-02-27T11:43:21.890Z,74.01
2023-02-27T11:44:27.944Z,74.32
2023-02-27T11:46:11.331Z,74.57
2023-02-27T11:46:47.328Z,74.01
2023-02-27T11:47:22.913Z,72.94
2023-02-27T11:48:21.858Z,72.91
2023-02-27T11:49:21.799Z,71.67
2023-02-27T11:50:21.809Z,71.73
2023-02-27T11:51:21.766Z,71.63
2023-02-27T11:52:21.769Z,71.63
2023-02-27T11:53:21.796Z,71.08
2023-02-27T11:54:21.782Z,70.05
2023-02-27T11:55:21.737Z,69.87
2023-02-27T11:56:21.724Z,70.67
2023-02-27T11:57:21.713Z,70.15
2023-02-27T11:58:21.715Z,70.77
2023-02-27T11:59:21.829Z,69.74
2023-02-27T12:00:21.687Z,70.05
2023-02-27T12:01:21.696Z,69.32
2023-02-27T12:02:21.698Z,70.08
2023-02-27T12:03:21.641Z,70.67
2023-02-27T12:04:21.750Z,70.57
2023-02-27T12:05:21.648Z,70.47
2023-02-27T12:06:21.613Z,70.15
2023-02-27T12:07:21.585Z,70.26
2023-02-27T12:08:21.595Z,69.98
2023-02-27T12:09:21.593Z,70.47
2023-02-27T12:10:21.581Z,70.15
2023-02-27T12:11:21.539Z,70.01
2023-02-27T12:12:21.542Z,69.50
2023-02-27T12:13:21.588Z,70.01
2023-02-27T12:14:21.516Z,70.57
2023-02-27T12:15:21.520Z,70.67
2023-02-27T12:16:21.529Z,70.70
2023-02-27T12:17:21.475Z,70.70
2023-02-27T12:18:21.526Z,72.15
2023-02-27T12:19:21.463Z,72.36
2023-02-27T12:20:21.483Z,73.15
2023-02-27T12:21:21.448Z,72.22
2023-02-27T12:22:21.420Z,72.67
2023-02-27T12:23:21.415Z,73.22
2023-02-27T12:24:21.407Z,73.63
2023-02-27T12:25:21.380Z,74.15
2023-02-27T12:26:21.393Z,73.25
2023-02-27T12:27:21.375Z,72.63
2023-02-27T12:28:21.350Z,72.87
2023-02-27T12:29:21.337Z,72.97
2023-02-27T12:30:21.351Z,71.94
2023-02-27T12:31:21.354Z,71.45
2023-02-27T12:32:21.391Z,72.45
2023-02-27T12:33:21.290Z,72.77
2023-02-27T12:34:21.303Z,71.52
2023-02-27T12:35:21.295Z,71.59
2023-02-27T12:36:21.322Z,71.08
2023-02-27T12:37:21.248Z,71.66
2023-02-27T12:38:21.240Z,71.91
2023-02-27T12:39:21.221Z,71.28
2023-02-27T12:40:21.235Z,71.15
2023-02-27T12:41:21.197Z,71.25
2023-02-27T12:42:21.189Z,71.01
2023-02-27T12:43:21.185Z,70.53
2023-02-27T12:44:21.173Z,72.25
2023-02-27T12:45:21.181Z,71.57
2023-02-27T12:46:21.166Z,69.74
2023-02-27T12:47:21.132Z,68.77
2023-02-27T12:48:21.124Z,69.64
2023-02-27T12:49:21.110Z,69.74
2023-02-27T12:50:21.097Z,70.26
2023-02-27T12:51:21.107Z,70.26
2023-02-27T12:52:21.102Z,70.01